Rubin Power — 3FNG6 — position and weather

sailwx.info

Track history (hours):
 
Tides and Currents Weather Stations Pressure Air Temp Water Temp Dewpoint Dewpoint Depression Visibility Wind Speed Wind Dir Waves Ship Positions

Rubin Power

Last reported at 2014-Dec-09 10:16 UTC. Time now 2014-Dec-19 07:16 UTC.
Position S 35°10' W 056°33'.
Warning: this ship's position is 9 days out of date.

Length 218.7 m; beam 32.2 m.

Type: Cargo ship. MMSI: 356808000.

Date/timePositionNaut miles runAvg speedWind from/ knotsBaromVisibWave heightAir tempDewpointWater temp
2014-Dec-09 10:16S 35°10' W 056°33'71 8.0
2014-Dec-09 01:26S 34°43' W 057°52'1510.8
2014-Dec-09 00:04S 34°38' W 058°09'52 8.7
2014-Dec-08 18:05S 34°06' W 058°59'5 9.6
2014-Dec-08 17:34S 34°02' W 059°03'9 8.5
2014-Dec-08 16:33S 33°58' W 059°12'7 6.7
2014-Dec-08 15:33S 33°52' W 059°16'7 5.5
2014-Dec-08 14:19S 33°45' W 059°16'7 9.0
2014-Dec-08 13:30S 33°44' W 059°25'9 9.4
2014-Dec-08 12:33S 33°39' W 059°33'7 7.2
2014-Dec-08 11:33S 33°37' W 059°41'7 7.4
2014-Dec-08 10:32S 33°32' W 059°49'8 8.4
2014-Dec-08 09:34S 33°28' W 059°57'9 8.8
2014-Dec-08 08:33S 33°22' W 060°04'10 9.6
2014-Dec-08 07:31S 33°17' W 060°15'8 8.4
2014-Dec-08 06:33S 33°11' W 060°22'10 9.6
2014-Dec-08 05:33S 33°05' W 060°31'10 9.6
2014-Dec-08 04:33S 32°57' W 060°37'10 9.8
2014-Dec-08 03:33S 32°49' W 060°42'6 5.8
2014-Dec-08 02:33S 32°43' W 060°43'1 1.1
2014-Dec-08 01:33S 32°42' W 060°43'0 0.0
2014-Dec-06 05:33S 32°42' W 060°43'0 0.0
2014-Dec-06 04:14S 32°42' W 060°43'0 0.0
2014-Dec-05 10:33S 32°42' W 060°43'0 0.0
2014-Dec-05 09:32S 32°42' W 060°43'78 3.6
2014-Dec-04 11:33S 33°38' W 059°38'4 4.3
2014-Dec-04 10:33S 33°42' W 059°36'6 4.4
2014-Dec-04 09:10S 33°42' W 059°28'7 9.7
2014-Dec-04 08:28S 33°44' W 059°20'9 7.0
2014-Dec-04 07:15S 33°50' W 059°13'7 9.4
2014-Dec-04 06:31S 33°54' W 059°06'9 8.4
2014-Dec-04 05:29S 33°54' W 058°56'52 8.2
2014-Dec-03 23:06S 34°20' W 058°01'611.1
2014-Dec-03 22:34S 34°25' W 057°58'1111.2
2014-Dec-03 21:33S 34°36' W 057°57'9 9.3
2014-Dec-03 20:33S 34°44' W 057°50'  
Track history (hours):
 
Tides and Currents Weather Stations Pressure Air Temp Water Temp Dewpoint Dewpoint Depression Visibility Wind Speed Wind Dir Waves Ship Positions

Rubin Power

Last reported at 2014-Dec-09 10:16 UTC. Time now 2014-Dec-19 07:16 UTC.
Position S 35°10' W 056°33'.
Warning: this ship's position is 9 days out of date.

Length 218.7 m; beam 32.2 m.

Type: Cargo ship. MMSI: 356808000.

Date/timePositionNaut miles runAvg speedWind from/ knotsBaromVisibWave heightAir tempDewpointWater temp
2014-Dec-09 10:16S 35°10' W 056°33'71 8.0
2014-Dec-09 01:26S 34°43' W 057°52'1510.8
2014-Dec-09 00:04S 34°38' W 058°09'52 8.7
2014-Dec-08 18:05S 34°06' W 058°59'5 9.6
2014-Dec-08 17:34S 34°02' W 059°03'9 8.5
2014-Dec-08 16:33S 33°58' W 059°12'7 6.7
2014-Dec-08 15:33S 33°52' W 059°16'7 5.5
2014-Dec-08 14:19S 33°45' W 059°16'7 9.0
2014-Dec-08 13:30S 33°44' W 059°25'9 9.4
2014-Dec-08 12:33S 33°39' W 059°33'7 7.2
2014-Dec-08 11:33S 33°37' W 059°41'7 7.4
2014-Dec-08 10:32S 33°32' W 059°49'8 8.4
2014-Dec-08 09:34S 33°28' W 059°57'9 8.8
2014-Dec-08 08:33S 33°22' W 060°04'10 9.6
2014-Dec-08 07:31S 33°17' W 060°15'8 8.4
2014-Dec-08 06:33S 33°11' W 060°22'10 9.6
2014-Dec-08 05:33S 33°05' W 060°31'10 9.6
2014-Dec-08 04:33S 32°57' W 060°37'10 9.8
2014-Dec-08 03:33S 32°49' W 060°42'6 5.8
2014-Dec-08 02:33S 32°43' W 060°43'1 1.1
2014-Dec-08 01:33S 32°42' W 060°43'0 0.0
2014-Dec-06 05:33S 32°42' W 060°43'0 0.0
2014-Dec-06 04:14S 32°42' W 060°43'0 0.0
2014-Dec-05 10:33S 32°42' W 060°43'0 0.0
2014-Dec-05 09:32S 32°42' W 060°43'78 3.6
2014-Dec-04 11:33S 33°38' W 059°38'4 4.3
2014-Dec-04 10:33S 33°42' W 059°36'6 4.4
2014-Dec-04 09:10S 33°42' W 059°28'7 9.7
2014-Dec-04 08:28S 33°44' W 059°20'9 7.0
2014-Dec-04 07:15S 33°50' W 059°13'7 9.4
2014-Dec-04 06:31S 33°54' W 059°06'9 8.4
2014-Dec-04 05:29S 33°54' W 058°56'52 8.2
2014-Dec-03 23:06S 34°20' W 058°01'611.1
2014-Dec-03 22:34S 34°25' W 057°58'1111.2
2014-Dec-03 21:33S 34°36' W 057°57'9 9.3
2014-Dec-03 20:33S 34°44' W 057°50'  

Dump ship's entire track history